Time;durP1;ratioP1;P1;durP2;ratioP2;P2;SDS_P1;SDS_P2;PMS_P1;PMS_P2;Temp;Humidity;BMP_temperature;BMP_pressure;BME280_temperature;BME280_humidity;BME280_pressure;Samples;Min_cycle;Max_cycle;Signal;HPM_P1;HPM_P2
2022/12/25 00:02:13;;;;;;;112.75;65.35;;;;;;;4.38;92.13;100330.66;123982;1099;104282;-79
2022/12/25 00:04:44;;;;;;;106.63;64.67;;;;;;;4.38;91.86;100321.95;124133;1099;104377;-79
2022/12/25 00:07:16;;;;;;;109.57;67.73;;;;;;;4.36;92.43;100324.46;123860;1099;104364;-78
2022/12/25 00:09:50;;;;;;;110.77;64.30;;;;;;;4.37;92.10;100346.16;123869;1099;104360;-79
2022/12/25 00:12:21;;;;;;;;;;;;;;;4.36;92.18;100344.36;123928;1098;104248;-78
2022/12/25 00:14:54;;;;;;;105.87;63.03;;;;;;;4.36;92.22;100341.77;124082;1099;104169;-78
2022/12/25 00:17:26;;;;;;;110.30;64.60;;;;;;;4.36;92.42;100353.04;123535;1102;104351;-78
2022/12/25 00:19:59;;;;;;;108.60;62.07;;;;;;;4.36;92.61;100358.23;123927;1099;104248;-78
2022/12/25 00:22:31;;;;;;;104.90;60.50;;;;;;;4.37;93.04;100352.24;123737;1099;104399;-79
2022/12/25 00:25:02;;;;;;;103.20;60.60;;;;;;;4.38;92.79;100355.72;123829;1099;104357;-78
2022/12/25 00:27:36;;;;;;;100.45;58.10;;;;;;;4.39;92.68;100358.41;123821;1099;104296;-79
2022/12/25 00:30:12;;;;;;;104.93;60.87;;;;;;;4.39;93.13;100358.41;124090;1099;104290;-78
2022/12/25 00:32:42;;;;;;;;;;;;;;;4.38;93.79;100356.64;123963;1099;104242;-79
2022/12/25 00:35:13;;;;;;;101.77;59.13;;;;;;;4.39;92.94;100355.81;124187;1098;104350;-79
2022/12/25 00:37:44;;;;;;;105.57;61.83;;;;;;;4.40;93.63;100355.02;123821;1099;104265;-79
2022/12/25 00:40:16;;;;;;;99.07;57.20;;;;;;;4.40;93.89;100351.53;123946;1099;104306;-78
2022/12/25 00:42:50;;;;;;;99.67;58.67;;;;;;;4.41;92.76;100346.43;123911;1098;104249;-79
2022/12/25 00:45:21;;;;;;;98.57;57.93;;;;;;;4.44;93.21;100345.69;123892;1099;104275;-79
2022/12/25 00:47:53;;;;;;;99.10;58.57;;;;;;;4.46;92.62;100349.30;123940;1099;104376;-78
2022/12/25 00:50:24;;;;;;;97.03;59.10;;;;;;;4.48;92.75;100352.86;123874;1099;104347;-79
2022/12/25 00:52:56;;;;;;;98.50;58.90;;;;;;;4.49;92.69;100360.75;123984;1099;104300;-80
2022/12/25 00:55:27;;;;;;;99.77;57.20;;;;;;;4.51;93.27;100360.84;123833;1099;104297;-79
2022/12/25 00:57:58;;;;;;;99.53;57.87;;;;;;;4.50;92.77;100366.83;123730;1099;104259;-79
2022/12/25 01:00:30;;;;;;;91.27;55.27;;;;;;;4.50;93.40;100378.14;123889;1099;104427;-79
2022/12/25 01:03:01;;;;;;;98.03;57.70;;;;;;;4.50;93.16;100366.83;124141;1099;104370;-78
2022/12/25 01:05:32;;;;;;;97.47;55.33;;;;;;;4.52;92.61;100365.23;123929;1099;104249;-79
2022/12/25 01:08:04;;;;;;;99.30;58.50;;;;;;;4.51;93.20;100368.63;124018;1098;104173;-79
2022/12/25 01:10:36;;;;;;;97.67;56.97;;;;;;;4.53;92.57;100372.20;123999;1099;104238;-78
2022/12/25 01:13:09;;;;;;;93.20;53.13;;;;;;;4.54;92.81;100370.53;123983;1099;104620;-78
2022/12/25 01:15:41;;;;;;;87.57;51.20;;;;;;;4.53;92.84;100363.52;124021;1099;104373;-78
2022/12/25 01:18:12;;;;;;;95.70;54.37;;;;;;;4.53;93.36;100371.32;124129;1099;104287;-78
2022/12/25 01:20:43;;;;;;;90.33;51.93;;;;;;;4.53;93.32;100372.20;124118;1099;104411;-79
2022/12/25 01:23:14;;;;;;;94.43;54.63;;;;;;;4.53;93.35;100381.72;124037;1099;104491;-79
2022/12/25 01:25:46;;;;;;;89.63;53.10;;;;;;;4.52;93.71;100379.91;123801;1099;104342;-77
2022/12/25 01:28:17;;;;;;;92.60;52.10;;;;;;;4.51;93.65;100376.43;123762;1099;104723;-80
2022/12/25 01:30:51;;;;;;;93.00;53.40;;;;;;;4.50;93.70;100372.03;123979;1099;104277;-79
2022/12/25 01:33:22;;;;;;;95.57;51.85;;;;;;;4.49;93.86;100368.55;123955;1099;104332;-79
2022/12/25 01:35:54;;;;;;;87.57;48.30;;;;;;;4.49;93.83;100370.26;123854;1099;104360;-79
2022/12/25 01:38:25;;;;;;;88.13;50.57;;;;;;;4.49;93.45;100367.66;123887;1099;104351;-79
2022/12/25 01:40:56;;;;;;;89.53;51.10;;;;;;;4.48;93.81;100364.14;123737;1098;104303;-79
2022/12/25 01:43:30;;;;;;;85.07;49.17;;;;;;;4.48;94.18;100358.95;123818;1099;104353;-79
2022/12/25 01:46:02;;;;;;;82.97;50.50;;;;;;;4.50;93.79;100353.84;123882;1099;104317;-79
2022/12/25 01:48:37;;;;;;;83.70;48.63;;;;;;;4.50;94.03;100351.23;123748;1099;104272;-79
2022/12/25 01:51:23;;;;;;;84.93;48.77;;;;;;;4.50;94.07;100353.84;124106;1099;104224;-79
2022/12/25 01:54:02;;;;;;;84.50;48.40;;;;;;;4.50;93.88;100346.96;123987;1099;104283;-78
2022/12/25 01:56:35;;;;;;;83.37;47.20;;;;;;;4.52;94.17;100343.53;123828;1099;104662;-78
2022/12/25 01:59:09;;;;;;;77.90;44.53;;;;;;;4.52;94.05;100336.66;123744;1099;104286;-78
2022/12/25 02:01:41;;;;;;;84.85;46.63;;;;;;;4.53;94.15;100341.02;123972;1099;104230;-79
2022/12/25 02:04:22;;;;;;;85.57;46.60;;;;;;;4.54;94.07;100342.83;123941;1099;104382;-79
2022/12/25 02:06:53;;;;;;;80.20;44.10;;;;;;;4.55;94.64;100344.63;123641;1099;104370;-79
2022/12/25 02:09:25;;;;;;;78.33;44.97;;;;;;;4.56;94.11;100341.20;123799;1099;104345;-79
2022/12/25 02:11:56;;;;;;;79.00;45.00;;;;;;;4.56;94.54;100340.31;123992;1099;104290;-79
2022/12/25 02:14:33;;;;;;;77.03;43.23;;;;;;;4.54;95.15;100341.94;124042;1099;104245;-79
2022/12/25 02:17:11;;;;;;;83.37;45.67;;;;;;;4.52;95.44;100340.94;123976;1099;104277;-78
2022/12/25 02:20:06;;;;;;;81.40;45.33;;;;;;;4.51;95.44;100342.65;123959;1099;104315;-78
2022/12/25 02:22:44;;;;;;;78.67;44.10;;;;;;;4.52;94.53;100354.84;123909;1099;104267;-78
2022/12/25 02:25:29;;;;;;;78.77;43.57;;;;;;;4.53;95.03;100353.13;123865;1099;104225;-79
2022/12/25 02:28:10;;;;;;;76.43;41.63;;;;;;;4.53;95.44;100356.61;123735;1099;104198;-78
2022/12/25 02:30:46;;;;;;;74.20;42.73;;;;;;;4.55;95.31;100355.02;123886;1099;104331;-78
2022/12/25 02:36:16;;;;;;;77.77;43.33;;;;;;;4.55;95.47;100356.70;123822;1099;104210;-78
2022/12/25 02:41:46;;;;;;;76.40;43.87;;;;;;;4.54;95.63;100371.41;123907;1099;104303;-79
2022/12/25 03:07:18;;;;;;;75.30;41.57;;;;;;;4.50;95.42;100369.43;123965;1099;102541;-79
2022/12/25 03:12:51;;;;;;;75.53;41.43;;;;;;;4.47;95.85;100382.24;123846;1099;104322;-79
2022/12/25 03:18:25;;;;;;;79.03;42.33;;;;;;;4.45;96.51;100387.35;123687;1099;104736;-78
2022/12/25 03:26:54;;;;;;;68.03;38.53;;;;;;;4.47;96.44;100390.95;123954;1099;104217;-78
2022/12/25 03:32:29;;;;;;;66.93;36.47;;;;;;;4.49;96.41;100404.03;123912;1098;104294;-78
2022/12/25 03:35:24;;;;;;;73.17;38.63;;;;;;;4.51;96.47;100405.02;123853;1099;109898;-80
2022/12/25 04:37:55;;;;;;;65.00;35.15;;;;;;;4.41;97.47;100439.96;123865;1099;104357;-78
2022/12/25 04:40:26;;;;;;;69.50;37.00;;;;;;;4.40;97.21;100442.47;123842;1099;104271;-79
2022/12/25 04:42:58;;;;;;;67.30;36.80;;;;;;;4.40;97.56;100447.66;123716;1099;104347;-78
2022/12/25 04:45:29;;;;;;;73.07;38.20;;;;;;;4.39;97.58;100454.54;123771;1099;104229;-79
2022/12/25 04:48:02;;;;;;;65.53;35.17;;;;;;;4.40;97.22;100447.66;123788;1099;104342;-78
2022/12/25 04:50:33;;;;;;;69.57;35.40;;;;;;;4.42;97.77;100465.12;123746;1099;104220;-78
2022/12/25 04:53:04;;;;;;;64.20;34.43;;;;;;;4.42;97.82;100457.32;123683;1099;104312;-78
2022/12/25 04:55:38;;;;;;;68.70;36.03;;;;;;;4.44;98.15;100460.02;123727;1099;104347;-78
2022/12/25 04:58:11;;;;;;;71.50;34.87;;;;;;;4.45;98.36;100457.50;123716;1098;104262;-78
2022/12/25 05:00:42;;;;;;;65.60;33.20;;;;;;;4.49;98.67;100463.80;123806;1099;104281;-79
2022/12/25 05:03:14;;;;;;;63.67;34.23;;;;;;;4.51;98.61;100464.78;123821;1099;104294;-79
2022/12/25 05:05:45;;;;;;;65.03;33.10;;;;;;;4.54;99.43;100467.56;123778;1099;104306;-78
2022/12/25 05:08:17;;;;;;;68.80;36.37;;;;;;;4.57;98.51;100467.74;123774;1098;104242;-78
2022/12/25 05:10:48;;;;;;;69.07;35.20;;;;;;;4.60;98.93;100473.12;123656;1099;104200;-78
2022/12/25 05:13:21;;;;;;;66.07;34.33;;;;;;;4.62;99.16;100474.09;123720;1099;104219;-80
2022/12/25 05:15:52;;;;;;;67.00;35.13;;;;;;;4.64;99.53;100485.51;123797;1099;104319;-79
2022/12/25 05:18:24;;;;;;;68.30;34.85;;;;;;;4.66;98.85;100481.28;123684;1099;104361;-77
2022/12/25 05:20:55;;;;;;;74.13;35.20;;;;;;;4.70;99.79;100482.34;123782;1099;104245;-78
2022/12/25 05:23:26;;;;;;;69.15;35.65;;;;;;;4.73;99.76;100479.05;123787;1099;104373;-78
2022/12/25 05:25:58;;;;;;;62.05;31.65;;;;;;;4.75;99.92;100478.30;123938;1099;104242;-79
2022/12/25 05:28:29;;;;;;;69.23;34.73;;;;;;;4.77;100.00;100481.91;123879;1099;104337;-79
2022/12/25 05:31:01;;;;;;;73.13;36.27;;;;;;;4.80;100.00;100486.38;123766;1099;104361;-78
2022/12/25 05:33:32;;;;;;;71.60;35.35;;;;;;;4.82;100.00;100488.27;123840;1099;104300;-77
2022/12/25 05:36:06;;;;;;;74.33;37.53;;;;;;;4.84;100.00;100483.16;123740;1099;104297;-79
2022/12/25 05:38:38;;;;;;;70.00;34.45;;;;;;;4.85;100.00;100491.05;123746;1098;104245;-78
2022/12/25 05:41:10;;;;;;;78.97;39.17;;;;;;;4.88;100.00;100494.63;123674;1099;104687;-78
2022/12/25 05:43:41;;;;;;;73.17;37.20;;;;;;;4.88;100.00;100505.95;123598;1099;104357;-78
2022/12/25 05:46:13;;;;;;;74.97;37.03;;;;;;;4.90;100.00;100517.33;123724;1098;104427;-78
2022/12/25 05:48:44;;;;;;;73.17;35.70;;;;;;;4.91;100.00;100506.13;123871;1099;104342;-78
2022/12/25 05:51:16;;;;;;;75.73;37.23;;;;;;;4.93;100.00;100521.81;123791;1099;104297;-79
2022/12/25 05:53:47;;;;;;;76.83;38.83;;;;;;;4.93;100.00;100514.02;123775;1098;104226;-78
2022/12/25 05:56:18;;;;;;;78.43;37.60;;;;;;;4.93;100.00;100520.10;123895;1099;104440;-79
2022/12/25 05:58:49;;;;;;;72.57;36.63;;;;;;;4.95;100.00;100528.00;124060;1099;104280;-79
2022/12/25 06:01:23;;;;;;;73.97;36.03;;;;;;;4.96;100.00;100528.08;124170;1098;104243;-79
2022/12/25 06:03:54;;;;;;;77.97;38.33;;;;;;;4.97;100.00;100534.17;124099;1099;104255;-79
2022/12/25 06:06:27;;;;;;;76.80;38.03;;;;;;;4.98;100.00;100533.38;123900;1099;105608;-79
2022/12/25 06:08:58;;;;;;;78.63;36.90;;;;;;;4.98;100.00;100539.46;123910;1099;104304;-78
2022/12/25 06:11:29;;;;;;;74.77;37.97;;;;;;;4.99;100.00;100551.67;123722;1098;104345;-78
2022/12/25 06:14:00;;;;;;;74.93;38.17;;;;;;;4.99;100.00;100550.78;123761;1099;104283;-79
2022/12/25 06:16:31;;;;;;;74.33;36.27;;;;;;;5.00;100.00;100550.88;123675;1098;104325;-78
2022/12/25 06:19:03;;;;;;;70.87;36.73;;;;;;;5.00;100.00;100552.55;123773;1099;104302;-78
2022/12/25 06:21:34;;;;;;;70.37;36.03;;;;;;;5.01;100.00;100547.44;123734;1099;104686;-78
2022/12/25 06:24:06;;;;;;;66.00;35.07;;;;;;;5.01;100.00;100551.77;123892;1099;104370;-79
2022/12/25 06:26:38;;;;;;;75.80;36.37;;;;;;;5.02;100.00;100557.05;123811;1099;104277;-78
2022/12/25 06:29:09;;;;;;;73.43;36.43;;;;;;;5.02;100.00;100562.25;123877;1099;104256;-78
2022/12/25 06:31:41;;;;;;;69.00;34.80;;;;;;;5.02;100.00;100558.77;123816;1099;104357;-79
2022/12/25 06:34:15;;;;;;;69.20;34.60;;;;;;;5.02;100.00;100559.66;123773;1099;104306;-78
2022/12/25 06:36:46;;;;;;;63.15;31.90;;;;;;;5.03;100.00;100557.94;124008;1099;104248;-78
2022/12/25 06:39:17;;;;;;;58.47;30.50;;;;;;;5.03;100.00;100561.45;123852;1099;104887;-78
2022/12/25 06:41:49;;;;;;;61.80;32.73;;;;;;;5.04;100.00;100563.23;123716;1099;104251;-79
2022/12/25 06:44:20;;;;;;;63.20;30.33;;;;;;;5.05;100.00;100558.95;123691;1099;104463;-78
2022/12/25 06:46:54;;;;;;;58.20;31.00;;;;;;;5.05;100.00;100566.75;123728;1099;104395;-78
2022/12/25 06:49:26;;;;;;;60.23;31.37;;;;;;;5.06;100.00;100572.84;123808;1099;104249;-79
2022/12/25 06:51:57;;;;;;;64.70;31.53;;;;;;;5.08;100.00;100581.62;123797;1098;104213;-79
2022/12/25 06:54:28;;;;;;;59.67;31.00;;;;;;;5.08;100.00;100585.14;123709;1099;104248;-78
2022/12/25 06:56:59;;;;;;;58.83;29.77;;;;;;;5.09;100.00;100580.83;123980;1099;104348;-79
2022/12/25 06:59:31;;;;;;;59.50;30.33;;;;;;;5.11;99.91;100592.20;123587;1099;104382;-78
2022/12/25 07:02:02;;;;;;;56.70;28.10;;;;;;;5.10;99.85;100599.12;123804;1099;104242;-78
2022/12/25 07:04:37;;;;;;;55.47;30.13;;;;;;;5.10;99.64;100603.44;124175;1099;104197;-78
2022/12/25 07:07:10;;;;;;;56.77;29.13;;;;;;;5.08;100.00;100602.42;124044;1099;104198;-78
2022/12/25 07:09:41;;;;;;;56.13;29.77;;;;;;;5.05;100.00;100603.16;123666;1098;104387;-78
2022/12/25 07:12:17;;;;;;;53.40;28.23;;;;;;;5.04;99.65;100603.95;123651;1099;104510;-78
2022/12/25 07:14:49;;;;;;;52.23;28.43;;;;;;;5.01;100.00;100609.86;123863;1098;104396;-79
2022/12/25 07:17:22;;;;;;;53.40;27.37;;;;;;;5.01;100.00;100606.37;123987;1098;104267;-78
2022/12/25 07:19:54;;;;;;;53.67;27.57;;;;;;;5.00;100.00;100613.30;123732;1099;104277;-78
2022/12/25 07:22:28;;;;;;;54.10;28.00;;;;;;;4.98;100.00;100616.59;123693;1099;104383;-78
2022/12/25 07:24:59;;;;;;;48.98;25.85;;;;;;;4.95;100.00;100611.21;123705;1099;104284;-78
2022/12/25 07:27:30;;;;;;;51.83;26.00;;;;;;;4.92;99.80;100624.91;123726;1099;104333;-78
2022/12/25 07:30:02;;;;;;;45.97;24.63;;;;;;;4.91;100.00;100622.22;123781;1099;104242;-78
2022/12/25 07:32:33;;;;;;;43.50;23.33;;;;;;;4.91;100.00;100627.42;123672;1099;104360;-78
2022/12/25 07:35:05;;;;;;;45.43;24.03;;;;;;;4.89;100.00;100622.12;123667;1099;104299;-78
2022/12/25 07:37:36;;;;;;;45.10;23.80;;;;;;;4.90;100.00;100623.05;123745;1099;104341;-78
2022/12/25 07:40:10;;;;;;;46.13;23.80;;;;;;;4.90;100.00;100629.13;123736;1098;104467;-78
2022/12/25 07:42:41;;;;;;;48.10;25.37;;;;;;;4.90;100.00;100631.73;123779;1099;104338;-79
2022/12/25 07:45:13;;;;;;;48.35;24.50;;;;;;;4.90;100.00;100634.34;123680;1099;104832;-78
2022/12/25 07:47:44;;;;;;;45.43;24.33;;;;;;;4.90;100.00;100639.53;123722;1099;104562;-77
2022/12/25 07:50:16;;;;;;;46.57;23.67;;;;;;;4.90;100.00;100646.45;123564;1099;107054;-78
2022/12/25 07:52:47;;;;;;;44.90;24.70;;;;;;;4.91;100.00;100648.22;123678;1099;104342;-79
2022/12/25 07:55:18;;;;;;;43.80;23.87;;;;;;;4.91;100.00;100646.55;123688;1099;104166;-79
2022/12/25 07:57:50;;;;;;;46.03;24.07;;;;;;;4.93;100.00;100644.03;123777;1099;104233;-78
2022/12/25 08:00:28;;;;;;;40.93;23.10;;;;;;;4.90;100.00;100643.84;123684;1099;118161;-78
2022/12/25 08:02:59;;;;;;;44.17;22.57;;;;;;;4.88;100.00;100646.36;123676;1099;104434;-79
2022/12/25 08:05:32;;;;;;;42.23;21.93;;;;;;;4.88;100.00;100668.84;123689;1099;104268;-78
2022/12/25 08:08:03;;;;;;;42.67;22.57;;;;;;;4.85;100.00;100662.66;123693;1099;104270;-78
2022/12/25 08:10:35;;;;;;;43.13;23.73;;;;;;;4.83;100.00;100659.08;123695;1099;104197;-79
2022/12/25 08:13:06;;;;;;;40.10;21.33;;;;;;;4.82;100.00;100671.98;123809;1099;104300;-78
2022/12/25 08:15:37;;;;;;;40.20;22.43;;;;;;;4.79;100.00;100666.59;123636;1099;104293;-78
2022/12/25 08:18:09;;;;;;;38.75;21.60;;;;;;;4.77;100.00;100674.30;123697;1099;104277;-78
2022/12/25 08:20:40;;;;;;;38.13;21.50;;;;;;;4.76;100.00;100663.80;123576;1099;104296;-79
2022/12/25 08:23:11;;;;;;;40.97;21.33;;;;;;;4.74;100.00;100684.51;123744;1099;104347;-77
2022/12/25 08:25:42;;;;;;;40.55;22.10;;;;;;;4.73;100.00;100687.02;123653;1099;104348;-79
2022/12/25 08:28:14;;;;;;;38.50;20.37;;;;;;;4.72;100.00;100686.12;123706;1099;104386;-78
2022/12/25 08:30:45;;;;;;;36.00;20.43;;;;;;;4.71;100.00;100681.72;123649;1099;104242;-78
2022/12/25 08:33:16;;;;;;;34.73;19.67;;;;;;;4.72;100.00;100691.33;123717;1099;104239;-79
2022/12/25 08:35:47;;;;;;;38.33;19.37;;;;;;;4.73;100.00;100697.41;123688;1099;104361;-78
2022/12/25 08:38:18;;;;;;;34.63;18.70;;;;;;;4.71;100.00;100706.83;123625;1099;104272;-79
2022/12/25 08:40:50;;;;;;;32.80;18.47;;;;;;;4.72;100.00;100690.41;123622;1099;104366;-77
2022/12/25 08:43:21;;;;;;;36.23;19.37;;;;;;;4.71;100.00;100699.03;123685;1099;104251;-78
2022/12/25 08:45:52;;;;;;;36.77;18.33;;;;;;;4.69;100.00;100698.93;123630;1099;104248;-78
2022/12/25 08:48:23;;;;;;;34.13;17.50;;;;;;;4.70;100.00;100703.30;123660;1099;104245;-78
2022/12/25 08:50:55;;;;;;;34.27;19.20;;;;;;;4.68;100.00;100695.41;123656;1099;104437;-79
2022/12/25 08:53:26;;;;;;;33.20;18.15;;;;;;;4.70;100.00;100699.81;123603;1099;104907;-78
2022/12/25 08:56:03;;;;;;;35.23;18.20;;;;;;;4.70;100.00;100694.62;123620;1099;104271;-79
2022/12/25 08:58:35;;;;;;;33.30;17.93;;;;;;;4.72;100.00;100703.41;123754;1098;104271;-78
2022/12/25 09:01:08;;;;;;;32.10;17.95;;;;;;;4.74;100.00;100697.50;123643;1099;104248;-78
2022/12/25 09:03:39;;;;;;;34.70;18.40;;;;;;;4.78;100.00;100704.67;123628;1099;104269;-78
2022/12/25 09:06:12;;;;;;;32.63;18.47;;;;;;;4.83;100.00;100702.36;123540;1099;104363;-78
2022/12/25 09:08:44;;;;;;;35.00;18.70;;;;;;;4.88;100.00;100702.64;123659;1099;104242;-77
2022/12/25 09:11:17;;;;;;;33.00;17.53;;;;;;;4.92;100.00;100709.84;123706;1098;104207;-78
2022/12/25 09:13:49;;;;;;;34.50;19.30;;;;;;;4.95;100.00;100720.43;123816;1099;104245;-78
2022/12/25 09:16:22;;;;;;;34.90;18.83;;;;;;;4.96;100.00;100717.92;123735;1099;104322;-78
2022/12/25 09:18:53;;;;;;;34.03;19.30;;;;;;;4.99;100.00;100722.43;123608;1099;104430;-79
2022/12/25 09:21:24;;;;;;;36.50;19.50;;;;;;;5.04;100.00;100715.80;123678;1099;104226;-79
2022/12/25 09:23:55;;;;;;;35.03;19.00;;;;;;;5.10;100.00;100717.89;123574;1099;104351;-78
2022/12/25 09:26:26;;;;;;;33.03;19.13;;;;;;;5.15;100.00;100719.95;123735;1099;104268;-79
2022/12/25 09:28:58;;;;;;;32.33;18.53;;;;;;;5.21;100.00;100730.72;123694;1098;104354;-79
2022/12/25 09:31:29;;;;;;;32.10;17.73;;;;;;;5.22;100.00;100734.25;123797;1099;104270;-79
2022/12/25 09:34:00;;;;;;;29.55;16.40;;;;;;;5.19;100.00;100736.66;123695;1099;104251;-78
2022/12/25 09:36:31;;;;;;;32.17;16.90;;;;;;;5.17;100.00;100738.25;123652;1098;104277;-78
2022/12/25 09:39:02;;;;;;;31.27;17.37;;;;;;;5.14;100.00;100751.98;123700;1099;104302;-78
2022/12/25 09:41:38;;;;;;;33.43;17.90;;;;;;;5.12;100.00;100760.48;123693;1098;104293;-78
2022/12/25 09:44:13;;;;;;;29.87;16.20;;;;;;;5.07;100.00;100767.12;123694;1099;104277;-79
2022/12/25 09:46:50;;;;;;;29.00;15.97;;;;;;;5.05;100.00;100764.42;123741;1099;104249;-78
2022/12/25 09:49:26;;;;;;;29.87;16.90;;;;;;;5.04;100.00;100763.50;123677;1099;104370;-78
2022/12/25 09:52:03;;;;;;;31.37;16.80;;;;;;;5.02;100.00;100759.92;123726;1099;104258;-78
2022/12/25 09:54:44;;;;;;;30.63;17.30;;;;;;;5.01;100.00;100765.91;123662;1099;104252;-77
2022/12/25 09:57:16;;;;;;;33.53;18.43;;;;;;;4.99;100.00;100764.04;123692;1099;104367;-79
2022/12/25 09:59:48;;;;;;;32.47;17.60;;;;;;;4.98;100.00;100767.44;123597;1099;104653;-79
2022/12/25 10:02:55;;;;;;;32.33;19.00;;;;;;;4.97;100.00;100768.23;123635;1099;104648;-78
2022/12/25 10:06:04;;;;;;;33.60;19.53;;;;;;;4.98;100.00;100776.13;123699;1099;104338;-79
2022/12/25 10:09:03;;;;;;;35.60;20.33;;;;;;;4.98;100.00;100773.52;123778;1099;104280;-78
2022/12/25 10:11:47;;;;;;;35.43;19.87;;;;;;;5.01;100.00;100781.52;123613;1099;104322;-78
2022/12/25 10:14:23;;;;;;;;;;;;;;;5.00;100.00;100784.02;123734;1098;104752;-79
2022/12/25 10:17:06;;;;;;;44.70;24.07;;;;;;;4.99;100.00;100783.13;123740;1099;104357;-78
2022/12/25 10:19:46;;;;;;;47.53;25.37;;;;;;;4.98;100.00;100768.32;123699;1099;104207;-79
2022/12/25 10:22:27;;;;;;;55.50;28.35;;;;;;;4.96;100.00;100788.14;123603;1099;104351;-78
2022/12/25 10:25:00;;;;;;;55.50;29.25;;;;;;;4.96;100.00;100775.14;123549;1099;104472;-78
2022/12/25 10:27:35;;;;;;;51.60;28.25;;;;;;;4.95;100.00;100780.25;123722;1098;104259;-77
2022/12/25 10:30:16;;;;;;;54.17;30.00;;;;;;;4.93;100.00;100777.55;123663;1099;104303;-78
2022/12/25 10:32:48;;;;;;;54.10;28.53;;;;;;;4.93;100.00;100777.55;123784;1099;104367;-78
2022/12/25 10:35:23;;;;;;;57.03;31.80;;;;;;;4.94;100.00;100781.95;123660;1099;104383;-78
2022/12/25 10:37:58;;;;;;;56.47;29.90;;;;;;;4.93;100.00;100787.06;123625;1099;104331;-79
2022/12/25 10:40:37;;;;;;;55.90;31.23;;;;;;;4.91;100.00;100781.77;123638;1099;104267;-79
2022/12/25 10:43:12;;;;;;;59.43;31.17;;;;;;;4.92;100.00;100775.73;123672;1099;104267;-79
2022/12/25 10:45:48;;;;;;;53.13;30.47;;;;;;;4.93;100.00;100787.95;123637;1099;104274;-78
2022/12/25 10:48:26;;;;;;;51.57;29.30;;;;;;;4.93;100.00;100792.27;123790;1099;104351;-78
2022/12/25 10:50:57;;;;;;;48.67;28.63;;;;;;;4.95;100.00;100783.73;123710;1099;104344;-79
2022/12/25 10:53:37;;;;;;;51.07;28.37;;;;;;;4.96;100.00;100779.45;123720;1099;104319;-78
2022/12/25 10:56:16;;;;;;;52.10;28.67;;;;;;;4.98;100.00;100783.93;123652;1099;104283;-79
2022/12/25 10:58:47;;;;;;;50.37;29.47;;;;;;;4.96;100.00;100780.34;123712;1099;104254;-78
2022/12/25 11:01:18;;;;;;;50.97;27.73;;;;;;;4.99;100.00;100779.65;123619;1099;104377;-78
2022/12/25 11:03:53;;;;;;;49.00;29.60;;;;;;;5.01;100.00;100788.43;123583;1099;104316;-78
2022/12/25 11:06:28;;;;;;;47.30;27.80;;;;;;;5.01;100.00;100789.32;123739;1099;104246;-78
2022/12/25 11:09:01;;;;;;;46.50;28.45;;;;;;;5.03;100.00;100797.22;123708;1099;104229;-81
2022/12/25 11:11:33;;;;;;;49.88;29.52;;;;;;;5.04;100.00;100792.11;123767;1099;104252;-77
2022/12/25 11:14:04;;;;;;;47.13;29.13;;;;;;;5.04;100.00;100799.92;123754;1099;104848;-79
2022/12/25 11:16:38;;;;;;;48.30;27.17;;;;;;;5.07;100.00;100803.54;123718;1099;104357;-78
2022/12/25 11:19:26;;;;;;;47.10;27.53;;;;;;;5.06;100.00;100793.92;123745;1099;104350;-79
2022/12/25 11:21:59;;;;;;;46.15;27.90;;;;;;;5.07;100.00;100799.22;123817;1098;104274;-79
2022/12/25 11:24:33;;;;;;;44.83;27.93;;;;;;;5.06;100.00;100797.41;123960;1099;104731;-79
2022/12/25 11:27:07;;;;;;;45.93;26.00;;;;;;;5.07;100.00;100807.02;123778;1098;104224;-79
2022/12/25 11:29:45;;;;;;;44.57;26.33;;;;;;;5.05;100.00;100808.64;123621;1098;104380;-78
2022/12/25 11:32:20;;;;;;;44.90;26.27;;;;;;;5.04;100.00;100805.12;123663;1099;104307;-78
2022/12/25 11:34:53;;;;;;;43.77;26.87;;;;;;;5.04;100.00;100810.33;123602;1099;110794;-78
2022/12/25 11:37:30;;;;;;;44.60;26.53;;;;;;;5.07;100.00;100812.23;123834;1099;104249;-78
2022/12/25 11:40:02;;;;;;;39.30;23.83;;;;;;;5.10;100.00;100804.62;123745;1099;104304;-79
2022/12/25 11:42:37;;;;;;;40.37;23.07;;;;;;;5.12;100.00;100809.91;123757;1099;104354;-79
2022/12/25 11:45:15;;;;;;;40.03;24.10;;;;;;;5.13;100.00;100814.33;123754;1099;104251;-78
2022/12/25 11:47:52;;;;;;;37.13;20.83;;;;;;;5.13;100.00;100810.02;123711;1099;104647;-79
2022/12/25 11:50:30;;;;;;;35.63;19.83;;;;;;;5.14;100.00;100816.10;123745;1099;104303;-78
2022/12/25 11:53:06;;;;;;;35.70;20.93;;;;;;;5.14;100.00;100810.90;123722;1099;104326;-78
2022/12/25 11:55:41;;;;;;;35.70;21.67;;;;;;;5.15;100.00;100823.11;123656;1099;106991;-78
2022/12/25 11:58:19;;;;;;;33.90;20.27;;;;;;;5.14;100.00;100823.91;123792;1099;104272;-78
2022/12/25 12:00:53;;;;;;;34.37;19.73;;;;;;;5.14;100.00;100826.51;123703;1098;104335;-78
2022/12/25 12:03:29;;;;;;;35.63;21.07;;;;;;;5.15;100.00;100828.31;123918;1099;104268;-78
2022/12/25 12:06:05;;;;;;;32.47;20.30;;;;;;;5.13;100.00;100828.22;123636;1099;104459;-79
2022/12/25 12:08:37;;;;;;;33.93;19.20;;;;;;;5.14;100.00;100831.71;123723;1099;104293;-78
2022/12/25 12:11:18;;;;;;;30.60;18.85;;;;;;;5.12;100.00;100844.62;123699;1099;104268;-79
2022/12/25 12:14:02;;;;;;;35.03;20.73;;;;;;;5.11;100.00;100837.64;123841;1098;104249;-79
2022/12/25 12:16:34;;;;;;;36.05;20.75;;;;;;;5.13;100.00;100837.73;123810;1099;104245;-79
2022/12/25 12:19:24;;;;;;;34.47;20.70;;;;;;;5.11;100.00;100848.05;123753;1099;104392;-77
2022/12/25 12:21:58;;;;;;;34.63;21.50;;;;;;;5.13;100.00;100848.14;123818;1099;104268;-79
2022/12/25 12:24:35;;;;;;;36.25;22.00;;;;;;;5.11;100.00;100848.05;123645;1099;104354;-78
2022/12/25 12:27:17;;;;;;;37.43;22.37;;;;;;;5.14;100.00;100852.52;123699;1099;104251;-78
2022/12/25 12:29:53;;;;;;;34.23;20.33;;;;;;;5.14;100.00;100852.52;123699;1099;104339;-78
2022/12/25 12:32:39;;;;;;;34.90;21.27;;;;;;;5.14;100.00;100852.52;123658;1099;104389;-79
2022/12/25 12:35:17;;;;;;;32.20;18.93;;;;;;;5.14;100.00;100855.13;123640;1099;104338;-79
2022/12/25 12:37:53;;;;;;;33.23;20.20;;;;;;;5.14;100.00;100855.13;123718;1099;104257;-79
2022/12/25 12:40:33;;;;;;;35.00;19.70;;;;;;;5.14;100.00;100862.92;123648;1099;104236;-78
2022/12/25 12:43:05;;;;;;;33.27;19.47;;;;;;;5.13;100.00;100856.84;123730;1099;104271;-79
2022/12/25 12:45:38;;;;;;;36.07;20.30;;;;;;;5.12;100.00;100886.25;123738;1099;104345;-79
2022/12/25 12:48:25;;;;;;;32.37;19.33;;;;;;;5.11;100.00;100875.73;123578;1099;104225;-79
2022/12/25 12:51:06;;;;;;;35.17;20.07;;;;;;;5.10;100.00;100877.45;123685;1099;104275;-78
2022/12/25 12:53:39;;;;;;;36.80;21.20;;;;;;;5.12;100.00;100877.55;123629;1099;104360;-78
2022/12/25 12:56:17;;;;;;;34.87;21.60;;;;;;;5.13;100.00;100884.56;123689;1099;104249;-78
2022/12/25 12:58:50;;;;;;;34.40;20.80;;;;;;;5.13;100.00;100890.66;123764;1099;104409;-78
2022/12/25 13:01:45;;;;;;;35.27;20.90;;;;;;;5.15;100.00;100885.55;123648;1099;104456;-78
2022/12/25 13:04:41;;;;;;;36.90;22.23;;;;;;;5.15;100.00;100886.44;123684;1099;104242;-78
2022/12/25 13:07:32;;;;;;;35.20;21.60;;;;;;;5.16;100.00;100879.55;123696;1099;111739;-78
2022/12/25 13:10:13;;;;;;;35.27;21.77;;;;;;;5.18;100.00;100891.84;123666;1099;104242;-78
2022/12/25 13:12:44;;;;;;;37.50;22.13;;;;;;;5.19;100.00;100895.36;123630;1099;104367;-78